CMA CGM Tosca — FMEL — position and weather

sailwx.info

Track history (hours):
 
Tides and Currents Weather Stations Pressure Air Temp Water Temp Dewpoint Dewpoint Depression Visibility Wind Speed Wind Dir Waves Ship Positions

CMA CGM Tosca

Last reported at 2014-Oct-15 02:34 UTC. Time now 2014-Oct-23 11:46 UTC.
Position N 01°14' E 103°42'.
Warning: this ship's position is 8 days out of date.

; draft 12.9 m.

Type: Cargo ship. MMSI: 228335900.

Date/timePositionNaut miles runAvg speedWind from/ knotsBaromVisibWave heightAir tempDewpointWater temp
2014-Oct-15 02:34N 01°14' E 103°42'5 5.0
2014-Oct-15 01:28N 01°16' E 103°47'0 0.0
2014-Oct-15 00:28N 01°16' E 103°47'0 0.0
2014-Oct-14 23:31N 01°16' E 103°47'0 0.0
2014-Oct-14 22:28N 01°16' E 103°47'0 0.0
2014-Oct-14 21:28N 01°16' E 103°47'0 0.0
2014-Oct-14 20:28N 01°16' E 103°47'0 0.0
2014-Oct-14 19:31N 01°16' E 103°47'0 0.0
2014-Oct-14 18:31N 01°16' E 103°47'0 0.0
2014-Oct-14 17:31N 01°16' E 103°47'0 0.0
2014-Oct-14 16:31N 01°16' E 103°47'0 0.0
2014-Oct-14 15:31N 01°16' E 103°47'0 0.0
2014-Oct-14 14:28N 01°16' E 103°47'0 0.0
2014-Oct-14 13:31N 01°16' E 103°47'0 0.0
2014-Oct-14 12:31N 01°16' E 103°47'0 0.0
2014-Oct-14 11:31N 01°16' E 103°47'0 0.0
2014-Oct-14 10:31N 01°16' E 103°47'0 0.0
2014-Oct-14 09:28N 01°16' E 103°47'0 0.0
2014-Oct-14 08:28N 01°16' E 103°47'0 0.0
2014-Oct-14 07:31N 01°16' E 103°47'0 0.0
2014-Oct-14 06:31N 01°16' E 103°47'0 0.3
2014-Oct-14 05:33N 01°16' E 103°47'4 3.7
2014-Oct-14 04:33N 01°13' E 103°48'9 9.2
2014-Oct-14 03:34N 01°15' E 103°57'1515.0
2014-Oct-14 02:33N 01°17' E 104°12'  
2014-Oct-11 10:32N 22°18' E 114°06'2 0.9
2014-Oct-11 08:16N 22°20' E 114°07'0 0.0
2014-Oct-11 01:28N 22°20' E 114°07'0 0.0
2014-Oct-11 00:04N 22°20' E 114°07'0 0.0
2014-Oct-10 23:28N 22°20' E 114°07'0 0.0
2014-Oct-10 22:28N 22°20' E 114°07'0 0.0
2014-Oct-10 20:04N 22°20' E 114°07'0 0.0
2014-Oct-10 19:22N 22°20' E 114°07'0 0.0
2014-Oct-10 18:28N 22°20' E 114°07'0 0.0
2014-Oct-10 17:16N 22°20' E 114°07'0 0.0
2014-Oct-10 16:28N 22°20' E 114°07'0 0.0
2014-Oct-10 15:28N 22°20' E 114°07'0 0.0
2014-Oct-10 14:28N 22°20' E 114°07'0 0.0
2014-Oct-10 13:22N 22°20' E 114°07'1 1.3
2014-Oct-10 12:33N 22°19' E 114°06'1110.3
2014-Oct-10 11:31N 22°22' E 113°55'8 8.5
2014-Oct-10 10:33N 22°29' E 113°52'0 0.2
2014-Oct-10 09:19N 22°29' E 113°52'0 0.0
2014-Oct-10 08:31N 22°29' E 113°52'0 0.0
2014-Oct-10 06:19N 22°29' E 113°52'0 0.0
2014-Oct-10 05:19N 22°29' E 113°52'0 0.0
2014-Oct-10 04:31N 22°29' E 113°52'0 0.0
2014-Oct-10 03:13N 22°29' E 113°52'0 0.0
2014-Oct-10 01:31N 22°29' E 113°52'0 0.0
2014-Oct-10 00:31N 22°29' E 113°52'0 0.0
2014-Oct-09 23:31N 22°29' E 113°52'1 1.2
2014-Oct-09 22:33N 22°28' E 113°52'16 7.9
2014-Oct-09 20:33N 22°18' E 114°06'1210.9
2014-Oct-09 19:28N 22°09' E 114°14'22117.0
2014-Oct-09 06:31N 23°37' E 117°54'1819.0
2014-Oct-09 05:33N 23°48' E 118°09'1817.8
2014-Oct-09 04:33N 23°58' E 118°26'5819.2
2014-Oct-09 01:33N 24°34' E 119°15'32818.2
2014-Oct-08 07:31N 29°12' E 122°31'1919.0
2014-Oct-08 06:30N 29°31' E 122°29'1819.0
2014-Oct-08 05:33N 29°46' E 122°17'9 8.6
2014-Oct-08 04:33N 29°49' E 122°08'7 2.3
2014-Oct-08 01:33N 29°46' E 122°00'0 0.0
2014-Oct-07 20:21N 29°46' E 122°00'0 0.0
2014-Oct-07 19:09N 29°46' E 122°00'0 0.0
2014-Oct-07 18:27N 29°46' E 122°00'0 0.0
2014-Oct-07 13:27N 29°46' E 122°00'0 0.0
2014-Oct-07 11:09N 29°46' E 122°00'0 0.0
2014-Oct-07 08:17N 29°46' E 122°00'3 4.4
2014-Oct-07 07:33N 29°48' E 122°04'10 9.7
2014-Oct-07 06:33N 29°48' E 122°15'8 7.8
2014-Oct-07 05:33N 29°44' E 122°23'1110.6
2014-Oct-07 04:27N 29°47' E 122°36'38 9.8
2014-Oct-07 00:33N 30°25' E 122°42'1515.4
2014-Oct-06 23:33N 30°31' E 122°25'1211.8
2014-Oct-06 22:33N 30°34' E 122°12'8 0.2
2014-Oct-05 10:27N 30°37' E 122°04'8 9.1
2014-Oct-05 09:34N 30°34' E 122°12'7 6.6
2014-Oct-05 08:33N 30°33' E 122°20'8 8.2
2014-Oct-05 07:33N 30°30' E 122°29'  
Track history (hours):
 
Tides and Currents Weather Stations Pressure Air Temp Water Temp Dewpoint Dewpoint Depression Visibility Wind Speed Wind Dir Waves Ship Positions

CMA CGM Tosca

Last reported at 2014-Oct-15 02:34 UTC. Time now 2014-Oct-23 11:46 UTC.
Position N 01°14' E 103°42'.
Warning: this ship's position is 8 days out of date.

; draft 12.9 m.

Type: Cargo ship. MMSI: 228335900.

Date/timePositionNaut miles runAvg speedWind from/ knotsBaromVisibWave heightAir tempDewpointWater temp
2014-Oct-15 02:34N 01°14' E 103°42'5 5.0
2014-Oct-15 01:28N 01°16' E 103°47'0 0.0
2014-Oct-15 00:28N 01°16' E 103°47'0 0.0
2014-Oct-14 23:31N 01°16' E 103°47'0 0.0
2014-Oct-14 22:28N 01°16' E 103°47'0 0.0
2014-Oct-14 21:28N 01°16' E 103°47'0 0.0
2014-Oct-14 20:28N 01°16' E 103°47'0 0.0
2014-Oct-14 19:31N 01°16' E 103°47'0 0.0
2014-Oct-14 18:31N 01°16' E 103°47'0 0.0
2014-Oct-14 17:31N 01°16' E 103°47'0 0.0
2014-Oct-14 16:31N 01°16' E 103°47'0 0.0
2014-Oct-14 15:31N 01°16' E 103°47'0 0.0
2014-Oct-14 14:28N 01°16' E 103°47'0 0.0
2014-Oct-14 13:31N 01°16' E 103°47'0 0.0
2014-Oct-14 12:31N 01°16' E 103°47'0 0.0
2014-Oct-14 11:31N 01°16' E 103°47'0 0.0
2014-Oct-14 10:31N 01°16' E 103°47'0 0.0
2014-Oct-14 09:28N 01°16' E 103°47'0 0.0
2014-Oct-14 08:28N 01°16' E 103°47'0 0.0
2014-Oct-14 07:31N 01°16' E 103°47'0 0.0
2014-Oct-14 06:31N 01°16' E 103°47'0 0.3
2014-Oct-14 05:33N 01°16' E 103°47'4 3.7
2014-Oct-14 04:33N 01°13' E 103°48'9 9.2
2014-Oct-14 03:34N 01°15' E 103°57'1515.0
2014-Oct-14 02:33N 01°17' E 104°12'  
2014-Oct-11 10:32N 22°18' E 114°06'2 0.9
2014-Oct-11 08:16N 22°20' E 114°07'0 0.0
2014-Oct-11 01:28N 22°20' E 114°07'0 0.0
2014-Oct-11 00:04N 22°20' E 114°07'0 0.0
2014-Oct-10 23:28N 22°20' E 114°07'0 0.0
2014-Oct-10 22:28N 22°20' E 114°07'0 0.0
2014-Oct-10 20:04N 22°20' E 114°07'0 0.0
2014-Oct-10 19:22N 22°20' E 114°07'0 0.0
2014-Oct-10 18:28N 22°20' E 114°07'0 0.0
2014-Oct-10 17:16N 22°20' E 114°07'0 0.0
2014-Oct-10 16:28N 22°20' E 114°07'0 0.0
2014-Oct-10 15:28N 22°20' E 114°07'0 0.0
2014-Oct-10 14:28N 22°20' E 114°07'0 0.0
2014-Oct-10 13:22N 22°20' E 114°07'1 1.3
2014-Oct-10 12:33N 22°19' E 114°06'1110.3
2014-Oct-10 11:31N 22°22' E 113°55'8 8.5
2014-Oct-10 10:33N 22°29' E 113°52'0 0.2
2014-Oct-10 09:19N 22°29' E 113°52'0 0.0
2014-Oct-10 08:31N 22°29' E 113°52'0 0.0
2014-Oct-10 06:19N 22°29' E 113°52'0 0.0
2014-Oct-10 05:19N 22°29' E 113°52'0 0.0
2014-Oct-10 04:31N 22°29' E 113°52'0 0.0
2014-Oct-10 03:13N 22°29' E 113°52'0 0.0
2014-Oct-10 01:31N 22°29' E 113°52'0 0.0
2014-Oct-10 00:31N 22°29' E 113°52'0 0.0
2014-Oct-09 23:31N 22°29' E 113°52'1 1.2
2014-Oct-09 22:33N 22°28' E 113°52'16 7.9
2014-Oct-09 20:33N 22°18' E 114°06'1210.9
2014-Oct-09 19:28N 22°09' E 114°14'22117.0
2014-Oct-09 06:31N 23°37' E 117°54'1819.0
2014-Oct-09 05:33N 23°48' E 118°09'1817.8
2014-Oct-09 04:33N 23°58' E 118°26'5819.2
2014-Oct-09 01:33N 24°34' E 119°15'32818.2
2014-Oct-08 07:31N 29°12' E 122°31'1919.0
2014-Oct-08 06:30N 29°31' E 122°29'1819.0
2014-Oct-08 05:33N 29°46' E 122°17'9 8.6
2014-Oct-08 04:33N 29°49' E 122°08'7 2.3
2014-Oct-08 01:33N 29°46' E 122°00'0 0.0
2014-Oct-07 20:21N 29°46' E 122°00'0 0.0
2014-Oct-07 19:09N 29°46' E 122°00'0 0.0
2014-Oct-07 18:27N 29°46' E 122°00'0 0.0
2014-Oct-07 13:27N 29°46' E 122°00'0 0.0
2014-Oct-07 11:09N 29°46' E 122°00'0 0.0
2014-Oct-07 08:17N 29°46' E 122°00'3 4.4
2014-Oct-07 07:33N 29°48' E 122°04'10 9.7
2014-Oct-07 06:33N 29°48' E 122°15'8 7.8
2014-Oct-07 05:33N 29°44' E 122°23'1110.6
2014-Oct-07 04:27N 29°47' E 122°36'38 9.8
2014-Oct-07 00:33N 30°25' E 122°42'1515.4
2014-Oct-06 23:33N 30°31' E 122°25'1211.8
2014-Oct-06 22:33N 30°34' E 122°12'8 0.2
2014-Oct-05 10:27N 30°37' E 122°04'8 9.1
2014-Oct-05 09:34N 30°34' E 122°12'7 6.6
2014-Oct-05 08:33N 30°33' E 122°20'8 8.2
2014-Oct-05 07:33N 30°30' E 122°29'  

Dump ship's entire track history